Terminal Aerodrome Forecast
Issued by NWS Sioux Falls, SD

Home | Current Version | Previous Version | Graphics & Text | Print | Product List | Glossary Off
Versions: 1 2 3 4 5 6 7 8 9 10 11 12

000
FTUS43 KFSD 052321
TAFHON
TAF
KHON 052321Z 0600/0624 16014G20KT P6SM -SHRA OVC070
     FM060200 12011KT P6SM OVC040
     FM060900 13013KT P6SM -SHRA OVC025
     FM061600 16014G21KT P6SM -SHRA OVC019=

USA.gov is the U.S. government's official web portal to all federal, state and local government web resources and services.